Time;durP1;ratioP1;P1;durP2;ratioP2;P2;SDS_P1;SDS_P2;PMS_P1;PMS_P2;Temp;Humidity;BMP_temperature;BMP_pressure;BME280_temperature;BME280_humidity;BME280_pressure;Samples;Min_cycle;Max_cycle;Signal;HPM_P1;HPM_P2
2023/01/11 00:01:56;;;;;;;12.05;7.50;;;8.80;99.90;;;;;;5065798;28;20131;-72
2023/01/11 00:04:28;;;;;;;10.20;7.45;;;8.70;99.90;;;;;;5046353;28;20113;-72
2023/01/11 00:06:55;;;;;;;10.65;6.88;;;8.80;99.90;;;;;;5051481;28;20040;-72
2023/01/11 00:09:21;;;;;;;10.85;7.18;;;8.80;99.90;;;;;;5048544;28;20107;-73
2023/01/11 00:11:47;;;;;;;10.65;7.22;;;8.80;99.90;;;;;;5065509;28;21028;-71
2023/01/11 00:14:16;;;;;;;12.80;7.55;;;8.90;99.90;;;;;;5037523;28;20831;-73
2023/01/11 00:16:42;;;;;;;11.68;7.13;;;8.90;99.90;;;;;;5044842;28;20049;-71
2023/01/11 00:19:07;;;;;;;11.48;7.60;;;8.90;99.90;;;;;;5025628;28;20068;-72
2023/01/11 00:21:33;;;;;;;13.25;7.85;;;8.90;99.90;;;;;;5012225;28;20973;-72
2023/01/11 00:23:59;;;;;;;10.85;8.02;;;9.00;99.90;;;;;;5011533;28;20064;-72
2023/01/11 00:26:25;;;;;;;9.98;7.70;;;9.00;99.90;;;;;;5028436;28;20128;-70
2023/01/11 00:28:51;;;;;;;10.63;8.07;;;9.00;99.90;;;;;;5011467;28;20056;-71
2023/01/11 00:31:17;;;;;;;11.60;8.00;;;9.00;99.90;;;;;;5012677;28;20497;-72
2023/01/11 00:33:43;;;;;;;11.40;8.30;;;9.00;99.90;;;;;;5030594;28;20047;-72
2023/01/11 00:36:09;;;;;;;12.02;8.52;;;9.00;99.90;;;;;;5032163;28;20044;-72
2023/01/11 00:38:45;;;;;;;12.25;8.07;;;9.10;99.90;;;;;;5034497;28;20098;-73
2023/01/11 00:49:27;;;;;;;11.95;8.38;;;9.10;99.90;;;;;;5031821;28;20052;-73
2023/01/11 00:51:53;;;;;;;11.38;7.90;;;9.10;99.90;;;;;;5014120;28;20102;-72
2023/01/11 00:54:19;;;;;;;10.35;7.05;;;9.40;99.90;;;;;;5048427;28;20040;-72
2023/01/11 00:56:45;;;;;;;9.63;6.97;;;9.10;99.90;;;;;;5048886;28;20469;-73
2023/01/11 00:59:11;;;;;;;10.30;7.70;;;9.20;99.90;;;;;;5014994;28;20394;-72
2023/01/11 01:01:37;;;;;;;10.45;7.57;;;9.20;99.90;;;;;;5047438;28;20043;-72
2023/01/11 01:04:03;;;;;;;9.82;6.18;;;9.20;99.90;;;;;;5032911;28;20123;-72
2023/01/11 01:06:29;;;;;;;9.80;5.85;;;9.20;99.90;;;;;;5012786;28;20048;-72
2023/01/11 01:08:55;;;;;;;10.55;6.55;;;9.20;99.90;;;;;;5048281;28;20055;-72
2023/01/11 01:11:21;;;;;;;8.63;5.78;;;9.30;99.90;;;;;;5014890;28;20410;-72
2023/01/11 01:16:32;;;;;;;9.32;5.70;;;9.40;99.90;;;;;;5067469;28;20051;-73
2023/01/11 01:18:58;;;;;;;8.90;5.15;;;9.40;99.90;;;;;;5033989;28;20834;-72
2023/01/11 01:21:27;;;;;;;8.50;5.72;;;9.40;99.90;;;;;;5034045;28;20041;-71
2023/01/11 01:23:56;;;;;;;7.32;4.90;;;9.40;99.90;;;;;;5069412;28;20040;-72
2023/01/11 01:26:22;;;;;;;7.43;4.88;;;9.40;99.90;;;;;;5033698;28;20043;-72
2023/01/11 01:28:51;;;;;;;7.22;4.70;;;9.40;99.90;;;;;;5049465;28;20503;-72
2023/01/11 01:31:17;;;;;;;7.80;4.72;;;9.50;99.90;;;;;;5050604;28;20109;-72
2023/01/11 01:33:43;;;;;;;8.50;4.63;;;9.50;99.90;;;;;;5048500;28;20507;-72
2023/01/11 01:36:09;;;;;;;6.70;4.47;;;9.50;99.90;;;;;;5036716;28;20044;-73
2023/01/11 01:38:34;;;;;;;6.95;4.30;;;9.50;99.90;;;;;;5033947;28;20053;-73
2023/01/11 01:41:00;;;;;;;8.18;4.57;;;9.50;99.90;;;;;;5050165;28;20409;-72
2023/01/11 01:43:48;;;;;;;8.35;4.40;;;9.50;99.90;;;;;;5051461;28;20051;-72
2023/01/11 01:46:14;;;;;;;6.53;4.07;;;9.60;99.90;;;;;;5050470;28;20063;-72
2023/01/11 01:48:43;;;;;;;6.65;4.32;;;9.60;99.90;;;;;;5049985;28;20046;-72
2023/01/11 01:51:13;;;;;;;7.25;4.40;;;9.80;99.90;;;;;;5048711;28;20516;-72
2023/01/11 01:53:45;;;;;;;7.18;4.20;;;9.60;99.90;;;;;;5066291;28;20613;-70
2023/01/11 01:56:18;;;;;;;6.40;4.07;;;9.70;99.90;;;;;;5050709;28;20127;-72
2023/01/11 01:58:49;;;;;;;6.22;3.83;;;9.70;99.90;;;;;;5047495;28;20534;-72
2023/01/11 02:04:06;;;;;;;6.10;3.47;;;9.70;99.90;;;;;;5064663;28;20113;-71
2023/01/11 02:06:32;;;;;;;6.40;3.72;;;9.70;99.90;;;;;;5048637;28;20043;-72
2023/01/11 02:09:06;;;;;;;10.55;4.03;;;9.70;99.90;;;;;;5049629;28;20032;-72
2023/01/11 02:11:33;;;;;;;7.13;3.92;;;9.70;99.90;;;;;;5066957;28;20072;-73
2023/01/11 02:14:03;;;;;;;7.55;3.85;;;9.80;99.90;;;;;;5064711;28;20139;-72
2023/01/11 02:16:29;;;;;;;5.95;3.80;;;10.10;99.90;;;;;;5046929;28;20111;-72
2023/01/11 02:18:56;;;;;;;6.22;3.47;;;9.80;99.90;;;;;;5065624;28;20762;-72
2023/01/11 02:21:26;;;;;;;6.30;3.50;;;9.80;99.90;;;;;;5065802;28;20048;-71
2023/01/11 02:24:15;;;;;;;6.88;3.58;;;9.80;99.90;;;;;;5047113;28;20044;-71
2023/01/11 02:26:54;;;;;;;6.07;3.40;;;9.80;99.90;;;;;;5029307;28;20073;-71
2023/01/11 02:29:37;;;;;;;5.13;3.13;;;9.80;99.90;;;;;;5067262;28;20048;-71
2023/01/11 02:32:11;;;;;;;6.53;3.60;;;9.80;99.90;;;;;;5065815;28;20789;-71
2023/01/11 02:35:19;;;;;;;5.88;3.08;;;9.90;99.90;;;;;;5050725;28;20044;-71
2023/01/11 02:38:03;;;;;;;5.55;3.58;;;9.90;99.90;;;;;;5044429;28;20058;-71
2023/01/11 02:40:56;;;;;;;6.57;3.42;;;9.90;99.90;;;;;;5065357;28;20092;-71
2023/01/11 02:46:15;;;;;;;4.72;2.60;;;9.90;99.90;;;;;;5047867;28;20820;-70
2023/01/11 02:49:06;;;;;;;7.10;2.85;;;10.00;99.90;;;;;;5065888;28;20500;-72
2023/01/11 02:51:46;;;;;;;5.10;2.73;;;10.00;99.90;;;;;;5066006;28;20047;-71
2023/01/11 02:54:15;;;;;;;5.93;2.95;;;10.00;99.90;;;;;;5045706;28;20688;-72
2023/01/11 02:56:44;;;;;;;5.80;2.58;;;10.00;99.90;;;;;;5055973;28;20753;-71
2023/01/11 02:59:16;;;;;;;5.32;2.47;;;10.10;99.90;;;;;;5068324;28;20048;-71
2023/01/11 03:01:46;;;;;;;;;;;10.10;99.90;;;;;;5065892;28;20079;-70
2023/01/11 03:04:26;;;;;;;4.38;2.05;;;10.10;99.90;;;;;;5037726;28;19924;-71
2023/01/11 03:07:33;;;;;;;3.78;2.10;;;10.10;99.90;;;;;;5063823;28;20131;-71
2023/01/11 03:10:25;;;;;;;5.32;2.20;;;10.10;99.90;;;;;;5047390;28;20127;-70
2023/01/11 03:13:16;;;;;;;6.82;2.25;;;10.10;99.90;;;;;;5047227;28;20060;-71
2023/01/11 03:15:55;;;;;;;5.47;2.30;;;10.10;99.90;;;;;;5027149;28;20498;-71
2023/01/11 03:18:32;;;;;;;4.90;2.70;;;10.10;99.90;;;;;;5046365;28;20048;-71
2023/01/11 03:21:19;;;;;;;5.32;2.38;;;10.20;99.90;;;;;;5011579;28;20060;-71
2023/01/11 03:24:01;;;;;;;3.58;1.80;;;10.20;99.90;;;;;;5046206;28;20090;-70
2023/01/11 03:26:56;;;;;;;7.90;2.45;;;10.20;99.90;;;;;;5028623;28;20067;-70
2023/01/11 03:29:31;;;;;;;8.82;2.65;;;10.20;99.90;;;;;;5045703;28;20114;-71
2023/01/11 03:32:16;;;;;;;10.52;3.25;;;10.20;99.90;;;;;;5026125;28;20040;-71
2023/01/11 03:34:51;;;;;;;6.95;3.42;;;10.30;99.90;;;;;;5029457;28;20118;-71
2023/01/11 03:37:30;;;;;;;14.77;3.78;;;10.30;99.90;;;;;;5012993;28;20057;-70
2023/01/11 03:40:15;;;;;;;10.80;4.35;;;10.50;99.90;;;;;;5027704;28;20037;-70
2023/01/11 03:45:34;;;;;;;15.80;4.80;;;10.30;99.90;;;;;;5025686;28;20061;-69
2023/01/11 03:48:03;;;;;;;14.82;5.03;;;10.40;99.90;;;;;;5027087;28;20134;-69
2023/01/11 03:50:31;;;;;;;18.25;5.20;;;10.40;99.90;;;;;;5044401;28;20046;-70
2023/01/11 03:52:59;;;;;;;15.48;4.95;;;10.40;99.90;;;;;;5011732;28;20159;-70
2023/01/11 03:55:29;;;;;;;13.05;5.13;;;10.40;99.90;;;;;;5027097;28;20056;-70
2023/01/11 03:57:56;;;;;;;30.15;5.65;;;10.40;99.90;;;;;;5028492;28;21892;-69
2023/01/11 04:00:25;;;;;;;13.45;4.70;;;10.40;99.90;;;;;;5045398;28;21288;-69
2023/01/11 04:02:52;;;;;;;20.88;5.45;;;10.40;99.90;;;;;;5027479;28;20037;-69
2023/01/11 04:05:19;;;;;;;18.92;4.78;;;10.40;99.90;;;;;;5027439;28;20506;-70
2023/01/11 04:07:45;;;;;;;24.92;5.13;;;10.40;99.90;;;;;;5017759;28;20320;-70
2023/01/11 04:10:11;;;;;;;19.50;5.50;;;10.40;99.90;;;;;;5033394;28;20033;-70
2023/01/11 04:12:37;;;;;;;17.23;5.35;;;10.40;99.90;;;;;;5032532;28;20040;-70
2023/01/11 04:15:04;;;;;;;21.45;5.70;;;10.40;99.90;;;;;;5015160;28;20067;-70
2023/01/11 04:17:31;;;;;;;22.13;5.72;;;10.40;99.90;;;;;;5016499;28;20382;-70
2023/01/11 04:19:57;;;;;;;23.90;4.93;;;10.40;99.90;;;;;;5049325;28;20156;-69
2023/01/11 04:22:22;;;;;;;21.25;4.78;;;10.30;99.90;;;;;;5031106;28;20107;-70
2023/01/11 04:24:49;;;;;;;22.23;5.30;;;10.40;99.90;;;;;;5031311;28;20048;-69
2023/01/11 04:27:15;;;;;;;21.13;4.75;;;10.40;99.90;;;;;;5019075;28;20099;-69
2023/01/11 04:29:40;;;;;;;22.77;5.90;;;10.40;99.90;;;;;;5027992;28;20056;-69
2023/01/11 04:32:06;;;;;;;20.48;4.88;;;10.40;99.90;;;;;;5015373;28;20052;-71
2023/01/11 04:34:32;;;;;;;21.98;4.25;;;10.40;99.90;;;;;;5035032;28;20072;-71
2023/01/11 04:36:58;;;;;;;16.63;3.58;;;10.40;99.90;;;;;;5051194;28;20073;-71
2023/01/11 04:39:24;;;;;;;16.13;2.30;;;10.30;99.90;;;;;;5048559;28;20553;-71
2023/01/11 04:44:34;;;;;;;15.48;2.00;;;10.10;99.90;;;;;;5032275;28;20894;-70
2023/01/11 04:47:00;;;;;;;12.48;2.03;;;10.10;99.90;;;;;;5035210;28;20059;-69
2023/01/11 04:49:26;;;;;;;14.27;1.80;;;10.00;99.90;;;;;;5017593;28;20048;-70
2023/01/11 04:51:51;;;;;;;11.32;1.63;;;9.90;99.90;;;;;;5034729;28;20048;-69
2023/01/11 04:54:17;;;;;;;16.05;1.90;;;9.90;99.90;;;;;;5047827;28;20060;-69
2023/01/11 04:56:43;;;;;;;11.60;1.60;;;9.80;99.90;;;;;;5036178;28;20456;-69
2023/01/11 04:59:09;;;;;;;19.17;2.47;;;9.80;99.90;;;;;;5015179;28;20045;-70
2023/01/11 05:01:34;;;;;;;18.38;2.55;;;9.80;99.90;;;;;;5049911;28;20048;-70
2023/01/11 05:04:00;;;;;;;21.83;3.30;;;9.80;99.90;;;;;;5052066;28;20048;-68
2023/01/11 05:06:26;;;;;;;24.55;3.47;;;9.80;99.90;;;;;;5029766;28;20051;-70
2023/01/11 05:08:52;;;;;;;15.57;2.58;;;9.90;99.90;;;;;;5033666;28;20060;-70
2023/01/11 05:11:18;;;;;;;23.77;3.35;;;9.90;99.90;;;;;;5049978;28;20070;-70
2023/01/11 05:13:44;;;;;;;27.05;3.47;;;9.90;99.90;;;;;;5037924;28;20074;-70
2023/01/11 05:16:22;;;;;;;25.75;2.53;;;9.90;99.90;;;;;;5053002;28;20054;-70
2023/01/11 05:18:50;;;;;;;13.73;2.72;;;9.90;99.90;;;;;;5072110;28;20067;-70
2023/01/11 05:21:19;;;;;;;25.65;3.00;;;9.90;99.90;;;;;;5049839;28;20125;-70
2023/01/11 05:23:45;;;;;;;24.50;3.00;;;9.90;99.90;;;;;;5048481;28;20059;-70
2023/01/11 05:26:14;;;;;;;24.20;2.83;;;9.80;99.90;;;;;;5032463;28;20778;-70
2023/01/11 05:28:40;;;;;;;20.95;2.47;;;9.80;99.90;;;;;;5036553;28;20051;-70
2023/01/11 05:31:06;;;;;;;29.63;3.03;;;9.80;99.90;;;;;;5031764;28;20040;-69
2023/01/11 05:33:31;;;;;;;23.00;2.65;;;9.80;99.90;;;;;;5051469;28;20543;-70
2023/01/11 05:35:59;;;;;;;32.83;3.40;;;9.80;99.90;;;;;;5048924;28;20552;-70
2023/01/11 05:38:26;;;;;;;31.33;3.95;;;9.80;99.90;;;;;;5034311;28;20602;-69
2023/01/11 05:41:03;;;;;;;33.38;3.50;;;9.80;99.90;;;;;;5049222;28;20511;-71
2023/01/11 05:43:30;;;;;;;25.73;3.70;;;9.80;99.90;;;;;;5038424;28;20155;-70
2023/01/11 05:45:56;;;;;;;31.92;4.10;;;9.80;99.90;;;;;;5050513;28;20040;-69
2023/01/11 05:48:23;;;;;;;27.95;3.75;;;9.90;99.90;;;;;;5067706;28;20062;-69
2023/01/11 05:50:54;;;;;;;26.75;3.47;;;9.80;99.90;;;;;;5055684;28;20052;-69
2023/01/11 05:53:22;;;;;;;25.88;3.50;;;9.80;99.90;;;;;;5075802;28;20378;-69
2023/01/11 05:55:56;;;;;;;23.90;2.90;;;9.80;99.90;;;;;;5052754;28;20048;-69
2023/01/11 05:58:25;;;;;;;21.83;3.75;;;9.80;99.90;;;;;;5056379;28;20627;-69
2023/01/11 06:00:53;;;;;;;21.48;3.60;;;9.80;99.90;;;;;;5036320;28;20469;-69
2023/01/11 06:03:21;;;;;;;24.42;3.05;;;9.70;99.90;;;;;;5066178;28;20115;-69
2023/01/11 06:05:47;;;;;;;32.55;3.75;;;9.70;99.90;;;;;;5056303;28;20489;-69
2023/01/11 06:08:13;;;;;;;25.70;3.10;;;9.70;99.90;;;;;;5035678;28;20043;-69
2023/01/11 06:10:39;;;;;;;23.58;3.08;;;9.60;99.90;;;;;;5046966;28;20052;-70
2023/01/11 06:15:50;;;;;;;23.95;2.90;;;9.60;99.90;;;;;;5046368;28;20067;-69
2023/01/11 06:18:15;;;;;;;20.58;2.63;;;9.60;99.90;;;;;;5036435;28;20416;-69
2023/01/11 06:20:41;;;;;;;21.60;3.05;;;9.50;99.90;;;;;;5041437;28;20850;-69
2023/01/11 06:23:07;;;;;;;23.13;2.92;;;9.50;99.90;;;;;;5058829;28;20780;-69
2023/01/11 06:25:36;;;;;;;21.20;3.10;;;9.50;99.90;;;;;;5035469;28;20076;-70
2023/01/11 06:28:05;;;;;;;30.75;3.88;;;9.50;99.90;;;;;;5036833;28;20051;-70
2023/01/11 06:30:31;;;;;;;26.75;2.92;;;9.50;99.90;;;;;;5071685;28;20443;-69
2023/01/11 06:33:04;;;;;;;26.73;3.25;;;9.50;99.90;;;;;;5077847;28;20048;-69
2023/01/11 06:35:33;;;;;;;39.08;4.47;;;9.50;99.90;;;;;;5051280;28;20037;-70
2023/01/11 06:37:59;;;;;;;29.50;3.47;;;9.50;99.90;;;;;;5060270;28;20394;-69
2023/01/11 06:40:25;;;;;;;24.42;3.17;;;9.50;99.90;;;;;;5041333;28;20144;-69
2023/01/11 06:42:50;;;;;;;26.95;2.58;;;9.40;99.90;;;;;;5056703;28;20496;-69
2023/01/11 06:45:16;;;;;;;20.02;2.92;;;9.40;99.90;;;;;;5041677;28;20715;-69
2023/01/11 06:47:42;;;;;;;25.27;3.33;;;9.50;99.90;;;;;;5056248;28;20075;-70
2023/01/11 06:50:08;;;;;;;24.98;2.80;;;9.40;99.90;;;;;;5052911;28;20045;-70
2023/01/11 06:52:34;;;;;;;21.02;2.95;;;9.40;99.90;;;;;;5033444;28;20127;-70
2023/01/11 06:55:00;;;;;;;20.90;3.00;;;9.40;99.90;;;;;;5052996;28;20857;-70
2023/01/11 06:57:25;;;;;;;22.40;3.17;;;9.40;99.90;;;;;;5055020;28;20040;-69
2023/01/11 06:59:51;;;;;;;23.48;3.08;;;9.40;99.90;;;;;;5049528;28;20094;-71
2023/01/11 07:02:17;;;;;;;17.60;2.63;;;9.40;99.90;;;;;;5073950;28;20040;-70
2023/01/11 07:04:43;;;;;;;21.02;2.70;;;9.30;99.90;;;;;;5058442;28;20127;-70
2023/01/11 07:07:08;;;;;;;20.48;2.50;;;9.30;99.90;;;;;;5068086;28;20473;-70
2023/01/11 07:09:34;;;;;;;20.10;2.95;;;9.70;99.90;;;;;;5060881;28;20555;-70
2023/01/11 07:12:00;;;;;;;22.42;2.58;;;9.30;99.90;;;;;;5058678;28;20527;-70
2023/01/11 07:14:25;;;;;;;19.73;2.67;;;9.30;99.90;;;;;;5041524;28;20048;-70
2023/01/11 07:16:51;;;;;;;20.77;2.60;;;9.30;99.90;;;;;;5051182;28;20136;-70
2023/01/11 07:19:17;;;;;;;20.95;2.88;;;9.30;99.90;;;;;;5037915;28;20036;-70
2023/01/11 07:21:43;;;;;;;17.02;2.58;;;9.20;99.90;;;;;;5035654;28;20048;-69
2023/01/11 07:24:09;;;;;;;13.88;2.22;;;9.30;99.90;;;;;;5051366;28;20044;-70
2023/01/11 07:26:40;;;;;;;20.98;3.90;;;9.20;99.90;;;;;;5055086;28;20559;-70
2023/01/11 07:29:06;;;;;;;15.18;2.22;;;9.20;99.90;;;;;;5031400;28;20048;-71
2023/01/11 07:31:32;;;;;;;18.00;2.60;;;9.20;99.90;;;;;;5025931;28;20059;-70
2023/01/11 07:33:58;;;;;;;21.10;2.70;;;9.20;99.90;;;;;;5039257;28;20658;-70
2023/01/11 07:36:24;;;;;;;20.75;3.05;;;9.20;99.90;;;;;;5037356;28;20048;-70
2023/01/11 07:38:49;;;;;;;16.95;2.42;;;9.10;99.90;;;;;;5030523;28;20498;-70
2023/01/11 07:43:59;;;;;;;16.48;3.20;;;9.10;99.90;;;;;;5061916;28;20049;-70
2023/01/11 07:46:25;;;;;;;16.33;2.55;;;9.10;99.90;;;;;;5056802;28;20051;-70
2023/01/11 07:48:51;;;;;;;17.52;2.55;;;9.10;99.90;;;;;;5061729;28;20047;-69
2023/01/11 07:51:19;;;;;;;18.05;2.70;;;9.10;99.90;;;;;;5051645;28;20040;-72
2023/01/11 07:53:45;;;;;;;17.48;2.55;;;9.10;99.90;;;;;;5020136;28;20060;-69
2023/01/11 07:56:12;;;;;;;21.70;2.38;;;9.10;99.90;;;;;;5057456;28;20452;-70
2023/01/11 07:58:37;;;;;;;12.60;2.50;;;9.50;99.90;;;;;;5048174;28;20521;-70
2023/01/11 08:01:04;;;;;;;22.88;2.60;;;9.10;99.90;;;;;;5032922;28;20155;-70
2023/01/11 08:03:30;;;;;;;21.42;2.60;;;9.10;99.90;;;;;;5030079;28;20469;-69
2023/01/11 08:05:56;;;;;;;16.58;2.45;;;9.10;99.90;;;;;;5040982;28;20044;-70
2023/01/11 08:08:22;;;;;;;19.13;2.10;;;9.10;99.90;;;;;;5063641;28;20119;-70
2023/01/11 08:14:37;;;;;;;15.02;2.28;;;9.10;99.90;;;;;;5021282;28;20065;-70
2023/01/11 08:16:22;;;;;;;16.77;2.15;;;9.10;99.90;;;;;;5065533;28;20042;-71
2023/01/11 08:18:52;;;;;;;14.55;2.05;;;9.10;99.90;;;;;;5056686;28;20053;-70
2023/01/11 08:21:20;;;;;;;24.70;2.80;;;9.10;99.90;;;;;;5063291;28;20040;-70
2023/01/11 08:23:46;;;;;;;14.88;2.40;;;9.10;99.90;;;;;;5049744;28;20140;-70
2023/01/11 08:26:15;;;;;;;17.98;2.33;;;9.00;99.90;;;;;;5064970;28;20048;-70
2023/01/11 08:28:45;;;;;;;11.77;2.25;;;9.00;99.90;;;;;;5044411;28;20123;-70
2023/01/11 08:31:11;;;;;;;24.63;2.65;;;9.00;99.90;;;;;;5051877;28;20046;-70
2023/01/11 08:33:36;;;;;;;17.42;1.98;;;9.00;99.90;;;;;;5043788;28;20064;-70
2023/01/11 08:36:06;;;;;;;17.55;2.63;;;9.00;99.90;;;;;;5045464;28;20128;-71
2023/01/11 08:38:32;;;;;;;12.90;2.00;;;9.00;99.90;;;;;;5064484;28;20122;-71
2023/01/11 08:40:58;;;;;;;16.55;3.30;;;9.00;99.90;;;;;;5063085;28;20055;-70
2023/01/11 08:43:24;;;;;;;24.90;2.80;;;8.90;99.90;;;;;;5060497;28;20639;-70
2023/01/11 08:45:50;;;;;;;14.75;1.98;;;8.90;99.90;;;;;;5045219;28;20044;-70
2023/01/11 08:48:16;;;;;;;16.92;2.50;;;8.90;99.90;;;;;;5067276;28;20044;-70
2023/01/11 08:50:43;;;;;;;17.27;2.53;;;8.90;99.90;;;;;;5043015;28;20056;-70
2023/01/11 08:53:10;;;;;;;18.35;2.40;;;8.80;99.90;;;;;;5054153;28;20040;-70
2023/01/11 08:55:36;;;;;;;14.30;2.55;;;8.80;99.90;;;;;;5075636;28;20040;-70
2023/01/11 08:58:02;;;;;;;14.40;2.17;;;8.80;99.90;;;;;;5059869;28;20095;-70
2023/01/11 09:00:27;;;;;;;19.45;2.33;;;8.80;99.90;;;;;;5076695;28;20060;-70
2023/01/11 09:02:54;;;;;;;20.58;2.97;;;8.70;99.90;;;;;;5066214;28;20056;-70
2023/01/11 09:05:20;;;;;;;14.18;3.45;;;8.70;99.90;;;;;;5053203;28;20047;-70
2023/01/11 09:07:45;;;;;;;16.35;2.03;;;8.70;99.90;;;;;;5036852;28;20044;-70
2023/01/11 09:10:11;;;;;;;13.65;2.10;;;8.70;99.90;;;;;;5062110;28;20039;-70
2023/01/11 09:12:37;;;;;;;18.05;2.58;;;8.70;99.90;;;;;;5044154;28;20048;-70
2023/01/11 09:15:04;;;;;;;18.20;2.30;;;8.70;99.90;;;;;;5078046;28;20071;-70
2023/01/11 09:17:30;;;;;;;17.35;2.30;;;8.70;99.90;;;;;;5076787;28;20044;-70
2023/01/11 09:19:56;;;;;;;17.38;1.98;;;9.00;99.90;;;;;;5051450;28;20516;-70
2023/01/11 09:22:22;;;;;;;11.68;2.00;;;9.10;99.90;;;;;;5070728;28;20040;-71
2023/01/11 09:24:48;;;;;;;14.18;1.88;;;8.70;99.90;;;;;;5075358;28;20187;-70
2023/01/11 09:27:14;;;;;;;18.10;2.30;;;8.70;99.90;;;;;;5050512;28;20040;-71
2023/01/11 09:29:40;;;;;;;16.23;2.20;;;8.70;99.90;;;;;;5068957;28;20048;-70
2023/01/11 09:32:05;;;;;;;15.13;2.13;;;8.70;99.90;;;;;;5060235;28;20091;-70
2023/01/11 09:34:32;;;;;;;10.43;1.80;;;8.70;99.90;;;;;;5072075;28;20036;-70
2023/01/11 09:37:01;;;;;;;15.13;2.05;;;8.70;99.90;;;;;;5051114;28;20962;-70
2023/01/11 09:39:27;;;;;;;22.02;2.47;;;8.70;99.90;;;;;;5052980;28;20052;-71
2023/01/11 09:42:30;;;;;;;16.02;2.50;;;8.80;99.90;;;;;;5061113;28;20068;-70
2023/01/11 09:45:20;;;;;;;15.57;2.97;;;8.70;99.90;;;;;;5055751;28;20040;-71
2023/01/11 09:48:03;;;;;;;13.13;2.40;;;8.70;99.90;;;;;;5076783;28;20069;-71
2023/01/11 09:50:40;;;;;;;12.65;2.00;;;8.70;99.90;;;;;;5057743;28;20166;-71
2023/01/11 09:53:12;;;;;;;18.77;2.20;;;8.80;99.90;;;;;;5074354;28;20036;-70
2023/01/11 09:55:48;;;;;;;12.63;2.08;;;8.80;99.90;;;;;;5052557;28;20065;-70
2023/01/11 09:58:15;;;;;;;18.77;2.05;;;8.80;99.90;;;;;;5051652;28;20040;-71
2023/01/11 10:00:49;;;;;;;16.13;2.00;;;8.80;99.90;;;;;;5051191;28;20512;-71
2023/01/11 10:03:36;;;;;;;14.88;2.05;;;8.80;99.90;;;;;;5058019;28;20090;-71
2023/01/11 10:06:18;;;;;;;16.83;2.78;;;8.80;99.90;;;;;;5039312;28;20052;-71
2023/01/11 10:08:59;;;;;;;15.30;1.48;;;8.80;99.90;;;;;;5060503;28;20724;-71
2023/01/11 10:11:34;;;;;;;16.23;2.15;;;8.80;99.90;;;;;;5079683;28;20060;-70
2023/01/11 10:14:17;;;;;;;19.92;2.67;;;8.80;99.90;;;;;;5059232;28;20600;-70
2023/01/11 10:17:00;;;;;;;11.50;1.95;;;8.90;99.90;;;;;;5065683;28;20117;-71
2023/01/11 10:19:38;;;;;;;13.45;1.80;;;8.90;99.90;;;;;;5044663;28;20140;-70
2023/01/11 10:22:35;;;;;;;12.82;1.60;;;8.90;99.90;;;;;;5060756;28;20123;-71
2023/01/11 10:25:25;;;;;;;14.95;2.17;;;8.90;99.90;;;;;;5080363;28;20070;-71
2023/01/11 10:27:57;;;;;;;16.35;2.58;;;8.90;99.90;;;;;;5081796;28;20079;-71
2023/01/11 10:41:47;;;;;;;16.70;2.45;;;9.00;99.90;;;;;;5080340;28;20527;-71
2023/01/11 10:44:40;;;;;;;11.43;1.85;;;9.00;99.90;;;;;;5047383;28;20604;-71
2023/01/11 10:47:15;;;;;;;14.90;2.67;;;9.00;99.90;;;;;;5041287;28;20143;-71
2023/01/11 10:50:06;;;;;;;16.17;2.15;;;9.10;99.90;;;;;;5039966;28;20140;-71
2023/01/11 10:52:50;;;;;;;18.48;3.00;;;9.10;99.90;;;;;;5059244;28;20079;-71
2023/01/11 10:55:32;;;;;;;15.65;2.50;;;9.10;99.90;;;;;;5059916;28;20603;-71
2023/01/11 10:58:03;;;;;;;14.82;2.50;;;9.40;99.90;;;;;;5040087;28;20056;-71
2023/01/11 11:00:38;;;;;;;16.75;2.20;;;9.10;99.90;;;;;;5054251;28;20071;-71
2023/01/11 11:03:36;;;;;;;13.88;2.30;;;9.10;99.90;;;;;;5065528;28;20405;-70
2023/01/11 11:06:22;;;;;;;14.00;2.47;;;9.10;99.90;;;;;;5069558;28;20032;-72
2023/01/11 11:08:58;;;;;;;18.80;2.67;;;9.10;99.90;;;;;;5053802;28;20105;-71
2023/01/11 11:11:51;;;;;;;20.17;2.78;;;9.10;99.90;;;;;;5034493;28;20051;-72
2023/01/11 11:14:37;;;;;;;14.02;2.50;;;9.10;99.90;;;;;;5032296;28;20040;-72
2023/01/11 11:17:29;;;;;;;16.23;2.20;;;9.10;99.90;;;;;;5046680;28;20063;-71
2023/01/11 11:19:55;;;;;;;;;;;9.10;99.90;;;;;;5055047;28;20067;-71
2023/01/11 11:22:21;;;;;;;16.65;3.13;;;9.10;99.90;;;;;;5061825;28;19932;-71
2023/01/11 11:24:52;;;;;;;19.88;3.13;;;9.10;99.90;;;;;;5069844;28;20052;-71
2023/01/11 11:27:34;;;;;;;19.13;2.67;;;9.10;99.90;;;;;;5049689;28;20050;-71
2023/01/11 11:29:59;;;;;;;20.00;3.00;;;9.10;99.90;;;;;;5072028;28;20045;-71
2023/01/11 11:32:36;;;;;;;22.70;3.72;;;9.10;99.90;;;;;;5052650;28;20039;-71
2023/01/11 11:35:02;;;;;;;14.88;2.55;;;9.10;99.90;;;;;;5072487;28;20045;-71
2023/01/11 11:37:34;;;;;;;25.52;3.05;;;9.10;99.90;;;;;;5051647;28;20048;-71
2023/01/11 11:40:00;;;;;;;;;;;9.10;99.90;;;;;;5035877;28;20123;-71
2023/01/11 11:42:26;;;;;;;25.92;3.38;;;9.10;99.90;;;;;;5053228;28;19975;-71
2023/01/11 11:45:07;;;;;;;20.77;3.22;;;9.30;99.90;;;;;;5056439;28;20044;-71
2023/01/11 11:47:33;;;;;;;21.73;2.75;;;9.10;99.90;;;;;;5053967;28;20040;-72
2023/01/11 11:50:23;;;;;;;23.20;3.50;;;9.10;99.90;;;;;;5050063;28;20051;-71
2023/01/11 11:53:01;;;;;;;18.65;2.42;;;9.10;99.90;;;;;;5051644;28;20598;-71
2023/01/11 11:55:30;;;;;;;24.00;2.72;;;9.10;99.90;;;;;;5060768;28;20044;-71
2023/01/11 11:58:04;;;;;;;23.55;3.58;;;9.10;99.90;;;;;;5037250;28;20217;-70
2023/01/11 12:00:33;;;;;;;20.88;3.38;;;9.10;99.90;;;;;;5051298;28;20055;-70
2023/01/11 12:03:22;;;;;;;20.98;2.92;;;9.10;99.90;;;;;;5048341;28;20071;-71
2023/01/11 12:05:51;;;;;;;23.25;3.13;;;9.10;99.90;;;;;;5033062;28;20087;-72
2023/01/11 12:08:17;;;;;;;28.17;5.25;;;9.20;99.90;;;;;;5038899;28;20051;-71
2023/01/11 12:10:56;;;;;;;25.40;3.47;;;9.20;99.90;;;;;;5069515;28;20044;-69
2023/01/11 12:13:36;;;;;;;21.35;3.60;;;9.20;99.90;;;;;;5047530;28;20558;-70
2023/01/11 12:16:20;;;;;;;21.58;3.47;;;9.30;99.90;;;;;;5048721;28;20048;-71
2023/01/11 12:18:47;;;;;;;19.10;2.60;;;9.30;99.90;;;;;;5052343;28;20139;-70
2023/01/11 12:21:23;;;;;;;22.67;3.03;;;9.30;99.90;;;;;;5058932;28;20036;-70
2023/01/11 12:24:17;;;;;;;21.90;3.00;;;9.20;99.90;;;;;;5037882;28;20405;-70
2023/01/11 12:26:56;;;;;;;23.67;2.83;;;9.20;99.90;;;;;;5045461;28;20044;-71
2023/01/11 12:29:43;;;;;;;17.65;2.97;;;9.60;99.90;;;;;;5057352;28;20086;-71
2023/01/11 12:32:50;;;;;;;16.70;2.90;;;9.20;99.90;;;;;;5044722;28;20044;-69
2023/01/11 12:35:29;;;;;;;20.35;3.35;;;9.20;99.90;;;;;;5036622;28;20475;-70
2023/01/11 12:38:05;;;;;;;20.48;3.90;;;9.20;99.90;;;;;;5052333;28;20052;-70
2023/01/11 12:40:33;;;;;;;27.33;3.40;;;9.20;99.90;;;;;;5074448;28;20056;-71
2023/01/11 12:43:02;;;;;;;23.00;3.30;;;9.20;99.90;;;;;;5038254;28;20585;-71
2023/01/11 12:45:38;;;;;;;16.23;3.00;;;9.20;99.90;;;;;;5071559;28;20763;-71
2023/01/11 12:48:13;;;;;;;22.67;3.95;;;9.20;99.90;;;;;;5052036;28;20140;-70
2023/01/11 12:51:17;;;;;;;23.15;3.20;;;9.20;99.90;;;;;;5053344;28;20090;-70
2023/01/11 12:53:51;;;;;;;29.42;3.22;;;9.20;99.90;;;;;;5077245;28;20044;-70
2023/01/11 12:56:39;;;;;;;22.88;2.58;;;9.20;99.90;;;;;;5074717;28;20396;-70
2023/01/11 12:59:26;;;;;;;20.63;3.05;;;9.20;99.90;;;;;;5037921;28;20040;-70
2023/01/11 13:02:12;;;;;;;22.98;3.13;;;9.20;99.90;;;;;;5058706;28;20523;-70
2023/01/11 13:04:52;;;;;;;21.02;3.08;;;9.20;99.90;;;;;;5059077;28;20044;-70
2023/01/11 13:07:36;;;;;;;22.52;3.38;;;9.30;99.90;;;;;;5059734;28;20036;-70
2023/01/11 13:10:11;;;;;;;27.83;3.63;;;9.20;99.90;;;;;;5058417;28;20075;-70
2023/01/11 13:13:04;;;;;;;21.17;3.47;;;9.20;99.90;;;;;;5053821;28;20052;-70
2023/01/11 13:16:03;;;;;;;21.80;3.40;;;9.30;99.90;;;;;;5040853;28;20055;-71
2023/01/11 13:18:40;;;;;;;33.05;4.90;;;9.20;99.90;;;;;;5020962;28;20113;-71
2023/01/11 13:21:20;;;;;;;20.80;2.90;;;9.20;99.90;;;;;;5054860;28;20418;-71
2023/01/11 13:23:48;;;;;;;26.55;3.83;;;9.20;99.90;;;;;;5050495;28;20072;-70
2023/01/11 13:26:20;;;;;;;27.90;3.65;;;9.30;99.90;;;;;;5053902;28;20043;-70
2023/01/11 13:28:54;;;;;;;27.60;3.70;;;9.30;99.90;;;;;;5070938;28;20121;-70
2023/01/11 13:31:21;;;;;;;20.98;3.40;;;9.30;99.90;;;;;;5034479;28;20074;-70
2023/01/11 13:33:55;;;;;;;22.45;3.72;;;9.30;99.90;;;;;;5055038;28;20156;-71
2023/01/11 13:36:25;;;;;;;24.98;3.45;;;9.30;99.90;;;;;;5054782;28;20040;-70
2023/01/11 13:39:10;;;;;;;24.70;3.53;;;9.30;99.90;;;;;;5047567;28;20056;-70
2023/01/11 13:41:47;;;;;;;27.02;3.47;;;9.30;99.90;;;;;;5035700;28;20062;-71
2023/01/11 13:44:22;;;;;;;27.63;3.10;;;9.30;99.90;;;;;;5052275;28;20451;-70
2023/01/11 13:46:57;;;;;;;22.30;4.32;;;9.30;99.90;;;;;;5057392;28;20044;-70
2023/01/11 13:49:34;;;;;;;28.83;3.20;;;9.30;99.90;;;;;;5076036;28;20047;-70
2023/01/11 13:52:16;;;;;;;23.55;2.90;;;9.30;99.90;;;;;;5070667;28;20044;-70
2023/01/11 13:54:45;;;;;;;31.23;4.53;;;9.30;99.90;;;;;;5034091;28;20062;-71